Time;durP1;ratioP1;P1;durP2;ratioP2;P2;SDS_P1;SDS_P2;PMS_P1;PMS_P2;Temp;Humidity;BMP_temperature;BMP_pressure;BME280_temperature;BME280_humidity;BME280_pressure;Samples;Min_cycle;Max_cycle;Signal;HPM_P1;HPM_P2
2022/07/22 00:01:43;;;;;;;2.33;1.10;;;18.20;95.50;;;;;;6081697;23;20022;-82
2022/07/22 00:04:09;;;;;;;4.63;1.40;;;18.20;95.50;;;;;;6072743;23;20410;-82
2022/07/22 00:06:34;;;;;;;2.87;1.03;;;18.20;95.50;;;;;;6082109;23;20552;-83
2022/07/22 00:09:00;;;;;;;2.50;1.10;;;18.10;95.40;;;;;;6095394;23;20522;-82
2022/07/22 00:11:26;;;;;;;3.25;1.25;;;18.00;95.40;;;;;;6069554;23;20457;-82
2022/07/22 00:13:52;;;;;;;4.32;1.30;;;18.00;95.40;;;;;;6077025;23;20025;-82
2022/07/22 00:16:17;;;;;;;2.33;1.17;;;18.00;95.50;;;;;;6108521;23;20033;-83
2022/07/22 00:18:44;;;;;;;2.85;1.42;;;17.90;95.50;;;;;;6078519;23;20534;-83
2022/07/22 00:21:09;;;;;;;3.57;1.20;;;17.80;95.40;;;;;;6102808;23;20379;-83
2022/07/22 00:23:35;;;;;;;2.53;1.08;;;17.80;95.40;;;;;;6072776;23;20014;-83
2022/07/22 00:26:01;;;;;;;2.40;1.10;;;17.80;95.40;;;;;;6072288;23;20026;-83
2022/07/22 00:28:26;;;;;;;2.75;1.05;;;17.80;95.40;;;;;;6074752;23;20017;-82
2022/07/22 00:30:52;;;;;;;2.93;1.10;;;17.70;95.40;;;;;;6080896;23;20148;-83
2022/07/22 00:33:18;;;;;;;4.10;1.35;;;17.70;95.50;;;;;;6082348;23;20014;-83
2022/07/22 00:35:43;;;;;;;2.83;1.13;;;17.60;95.50;;;;;;6099119;23;20272;-82
2022/07/22 00:38:09;;;;;;;2.90;1.23;;;17.50;95.60;;;;;;6075816;23;20463;-83
2022/07/22 00:40:35;;;;;;;2.20;1.30;;;17.50;95.60;;;;;;6062209;23;20599;-82
2022/07/22 00:43:01;;;;;;;4.72;1.35;;;17.50;95.60;;;;;;6070012;23;20478;-82
2022/07/22 00:45:26;;;;;;;2.20;1.30;;;17.40;95.60;;;;;;6104574;23;20408;-82
2022/07/22 00:47:52;;;;;;;3.20;1.10;;;17.40;95.60;;;;;;6081714;23;20420;-82
2022/07/22 00:50:19;;;;;;;3.23;1.20;;;17.40;95.70;;;;;;6079210;23;20092;-82
2022/07/22 00:52:45;;;;;;;4.63;1.48;;;17.40;95.80;;;;;;6097678;23;20301;-82
2022/07/22 00:55:12;;;;;;;2.83;1.30;;;17.30;95.80;;;;;;6103765;23;20216;-83
2022/07/22 00:57:38;;;;;;;2.17;1.20;;;17.30;95.80;;;;;;6098881;23;20014;-83
2022/07/22 01:00:08;;;;;;;3.87;1.20;;;17.20;95.80;;;;;;6096512;23;20042;-83
2022/07/22 01:02:34;;;;;;;2.38;1.30;;;17.20;95.90;;;;;;6107457;23;20025;-83
2022/07/22 01:04:59;;;;;;;2.28;1.30;;;17.20;95.90;;;;;;6102111;23;20013;-83
2022/07/22 01:07:25;;;;;;;2.37;1.20;;;17.10;95.90;;;;;;6077016;23;20189;-82
2022/07/22 01:09:51;;;;;;;2.78;1.40;;;17.10;95.90;;;;;;6109761;23;20036;-83
2022/07/22 01:12:16;;;;;;;1.97;1.07;;;17.10;96.00;;;;;;6095191;23;20100;-82
2022/07/22 01:14:42;;;;;;;2.50;1.10;;;17.10;96.00;;;;;;6110963;23;20461;-83
2022/07/22 01:17:08;;;;;;;2.90;1.30;;;17.10;95.90;;;;;;6097917;23;20269;-82
2022/07/22 01:19:35;;;;;;;2.35;1.20;;;17.10;95.90;;;;;;6108116;23;20081;-83
2022/07/22 01:22:01;;;;;;;2.73;1.10;;;17.00;95.90;;;;;;6096708;23;20017;-82
2022/07/22 01:24:27;;;;;;;2.83;1.20;;;17.00;96.00;;;;;;6080470;23;20496;-83
2022/07/22 01:26:52;;;;;;;2.73;1.37;;;17.00;95.90;;;;;;6105241;23;20021;-83
2022/07/22 01:29:18;;;;;;;2.33;1.15;;;17.00;96.00;;;;;;6094674;23;20521;-83
2022/07/22 01:31:43;;;;;;;3.20;1.20;;;17.00;95.90;;;;;;6081006;23;20076;-82
2022/07/22 01:34:09;;;;;;;2.53;1.10;;;16.90;95.90;;;;;;6100728;23;20013;-83
2022/07/22 01:36:35;;;;;;;1.93;1.20;;;16.90;96.00;;;;;;6078093;23;20045;-83
2022/07/22 01:39:01;;;;;;;2.95;1.08;;;16.90;96.00;;;;;;6081809;23;20010;-82
2022/07/22 01:41:26;;;;;;;2.33;1.10;;;16.90;96.00;;;;;;6108633;23;20322;-83
2022/07/22 01:43:52;;;;;;;2.03;1.00;;;16.80;96.30;;;;;;6099567;23;20351;-83
2022/07/22 01:46:18;;;;;;;2.60;1.10;;;16.80;96.00;;;;;;6080330;23;20468;-83
2022/07/22 01:48:44;;;;;;;3.28;1.13;;;16.80;96.10;;;;;;6080617;23;20014;-82
2022/07/22 01:51:10;;;;;;;2.60;0.95;;;16.70;96.10;;;;;;6068890;23;20213;-83
2022/07/22 01:53:35;;;;;;;2.10;1.10;;;16.70;96.10;;;;;;6083429;23;20284;-82
2022/07/22 01:56:01;;;;;;;2.47;1.13;;;16.70;96.10;;;;;;6081580;23;20350;-82
2022/07/22 01:58:27;;;;;;;2.85;1.10;;;16.70;96.10;;;;;;6098632;23;20014;-82
2022/07/22 02:00:53;;;;;;;2.37;1.20;;;16.70;96.10;;;;;;6109064;23;20121;-82
2022/07/22 02:03:18;;;;;;;2.72;1.10;;;16.70;96.20;;;;;;6072721;23;20256;-82
2022/07/22 02:05:45;;;;;;;2.47;1.30;;;16.60;96.10;;;;;;6109950;23;20498;-82
2022/07/22 02:08:12;;;;;;;2.50;1.10;;;16.60;96.10;;;;;;6068650;23;20361;-82
2022/07/22 02:10:38;;;;;;;2.90;1.25;;;16.60;96.20;;;;;;6109972;23;20128;-82
2022/07/22 02:13:04;;;;;;;2.65;1.10;;;16.60;96.60;;;;;;6104869;23;20506;-82
2022/07/22 02:15:30;;;;;;;3.17;1.17;;;16.50;96.20;;;;;;6072057;23;20367;-83
2022/07/22 02:17:56;;;;;;;2.40;1.20;;;16.50;96.20;;;;;;6078094;23;20041;-82
2022/07/22 02:20:22;;;;;;;2.17;1.10;;;16.50;96.30;;;;;;6074387;23;20034;-82
2022/07/22 02:22:48;;;;;;;1.60;1.10;;;16.40;96.30;;;;;;6100146;23;20148;-82
2022/07/22 02:25:13;;;;;;;2.13;1.00;;;16.50;96.40;;;;;;6099593;23;20014;-82
2022/07/22 02:27:40;;;;;;;2.67;1.10;;;16.40;96.40;;;;;;6078509;23;20032;-82
2022/07/22 02:30:07;;;;;;;3.67;1.10;;;16.40;96.40;;;;;;6098953;23;20523;-82
2022/07/22 02:32:33;;;;;;;2.08;1.13;;;16.40;96.40;;;;;;6080412;23;20028;-82
2022/07/22 02:34:58;;;;;;;3.30;1.07;;;16.40;96.40;;;;;;6108185;23;20018;-82
2022/07/22 02:37:24;;;;;;;2.00;1.10;;;16.40;96.50;;;;;;6101722;23;20455;-82
2022/07/22 02:39:50;;;;;;;2.05;0.90;;;16.30;96.40;;;;;;6099146;23;20014;-82
2022/07/22 02:42:16;;;;;;;2.30;1.17;;;16.30;96.40;;;;;;6106182;23;20072;-82
2022/07/22 02:44:41;;;;;;;2.47;1.10;;;16.30;96.40;;;;;;6100563;23;20242;-82
2022/07/22 02:47:07;;;;;;;2.35;1.20;;;16.30;96.40;;;;;;6097194;23;20013;-81
2022/07/22 02:49:33;;;;;;;1.67;0.93;;;16.30;96.40;;;;;;6103580;23;20384;-82
2022/07/22 02:51:58;;;;;;;1.23;0.95;;;16.30;96.40;;;;;;6082325;23;20085;-81
2022/07/22 02:54:24;;;;;;;2.87;0.80;;;16.20;96.40;;;;;;6075546;23;20354;-82
2022/07/22 02:56:49;;;;;;;2.13;1.00;;;16.20;96.40;;;;;;6102995;23;20065;-82
2022/07/22 02:59:15;;;;;;;2.03;0.90;;;16.20;96.40;;;;;;6082994;23;20287;-81
2022/07/22 03:01:41;;;;;;;1.98;1.10;;;16.20;96.40;;;;;;6092028;23;20398;-82
2022/07/22 03:04:07;;;;;;;2.87;0.90;;;16.10;96.40;;;;;;6082870;23;20018;-82
2022/07/22 03:06:32;;;;;;;2.08;0.95;;;16.10;96.40;;;;;;6076523;23;20215;-81
2022/07/22 03:08:58;;;;;;;2.23;1.00;;;16.10;96.40;;;;;;6106551;23;20093;-81
2022/07/22 03:11:23;;;;;;;3.77;0.93;;;16.10;96.40;;;;;;6102161;23;20010;-81
2022/07/22 03:13:49;;;;;;;2.70;1.08;;;16.10;96.40;;;;;;6095075;23;20120;-81
2022/07/22 03:16:14;;;;;;;3.77;1.10;;;16.00;96.30;;;;;;6082744;23;20089;-81
2022/07/22 03:18:40;;;;;;;1.55;1.08;;;16.00;96.40;;;;;;6067583;23;20208;-81
2022/07/22 03:21:06;;;;;;;1.83;0.93;;;16.00;96.40;;;;;;6082874;23;20005;-81
2022/07/22 03:23:31;;;;;;;2.78;1.10;;;15.90;96.40;;;;;;6105725;23;20458;-81
2022/07/22 03:25:57;;;;;;;1.53;0.90;;;15.90;96.40;;;;;;6095720;23;20025;-81
2022/07/22 03:28:23;;;;;;;2.77;1.10;;;15.90;96.40;;;;;;6077639;23;20018;-81
2022/07/22 03:30:48;;;;;;;1.40;0.90;;;15.90;96.40;;;;;;6074274;23;20245;-81
2022/07/22 03:33:14;;;;;;;2.20;1.08;;;15.90;96.40;;;;;;6098104;23;20014;-81
2022/07/22 03:35:40;;;;;;;2.30;1.10;;;15.80;96.40;;;;;;6104756;23;20232;-81
2022/07/22 03:38:05;;;;;;;2.28;1.10;;;15.80;96.50;;;;;;6082964;23;20033;-81
2022/07/22 03:40:31;;;;;;;1.50;1.00;;;15.80;96.50;;;;;;6100696;23;20088;-81
2022/07/22 03:42:57;;;;;;;1.57;1.10;;;15.80;96.50;;;;;;6102181;23;20275;-81
2022/07/22 03:45:22;;;;;;;2.43;1.10;;;15.80;96.60;;;;;;6104884;23;20241;-81
2022/07/22 03:47:48;;;;;;;1.13;0.97;;;15.70;96.50;;;;;;6099003;23;20022;-81
2022/07/22 03:50:14;;;;;;;3.08;1.10;;;15.70;96.60;;;;;;6072144;23;20022;-81
2022/07/22 03:52:39;;;;;;;2.13;0.93;;;15.70;96.60;;;;;;6098634;23;20540;-81
2022/07/22 03:55:06;;;;;;;1.58;1.00;;;15.70;96.60;;;;;;6082578;23;20010;-81
2022/07/22 03:57:32;;;;;;;1.60;0.93;;;15.70;96.60;;;;;;6099801;23;20609;-81
2022/07/22 03:59:57;;;;;;;1.88;1.20;;;15.70;96.70;;;;;;6078207;23;20214;-81
2022/07/22 04:02:23;;;;;;;2.13;0.87;;;15.70;96.70;;;;;;6081696;23;20363;-81
2022/07/22 04:04:48;;;;;;;1.80;0.98;;;15.70;96.70;;;;;;6094684;23;20133;-81
2022/07/22 04:07:14;;;;;;;1.10;1.00;;;15.70;96.70;;;;;;6077130;23;20093;-81
2022/07/22 04:09:39;;;;;;;1.53;1.00;;;15.70;96.80;;;;;;6077814;23;20060;-81
2022/07/22 04:12:05;;;;;;;1.48;1.10;;;15.60;96.80;;;;;;6082403;23;20013;-81
2022/07/22 04:14:31;;;;;;;2.17;1.10;;;15.60;96.80;;;;;;6072125;23;20041;-81
2022/07/22 04:16:56;;;;;;;3.33;1.00;;;15.60;96.90;;;;;;6079796;23;20287;-80
2022/07/22 04:19:22;;;;;;;3.73;1.20;;;15.60;97.00;;;;;;6105833;23;20431;-80
2022/07/22 04:21:48;;;;;;;1.80;1.15;;;15.60;97.00;;;;;;6097739;23;20022;-81
2022/07/22 04:24:13;;;;;;;3.20;0.90;;;15.60;97.10;;;;;;6104645;23;20473;-80
2022/07/22 04:26:39;;;;;;;2.03;0.90;;;15.60;97.10;;;;;;6083135;23;20100;-81
2022/07/22 04:29:05;;;;;;;2.72;1.10;;;15.60;97.20;;;;;;6072979;23;20426;-81
2022/07/22 04:31:32;;;;;;;1.73;1.10;;;15.60;97.30;;;;;;6077594;23;20025;-81
2022/07/22 04:33:58;;;;;;;3.47;1.17;;;15.60;97.50;;;;;;6080644;23;20024;-81
2022/07/22 04:36:24;;;;;;;2.63;1.10;;;15.60;97.50;;;;;;6096258;23;20359;-81
2022/07/22 04:38:50;;;;;;;2.33;1.00;;;15.60;97.60;;;;;;6083117;23;20085;-81
2022/07/22 04:41:15;;;;;;;1.70;1.20;;;15.60;97.70;;;;;;6106487;23;20554;-81
2022/07/22 04:43:41;;;;;;;2.17;1.20;;;15.60;97.80;;;;;;6071682;23;20009;-81
2022/07/22 04:46:07;;;;;;;2.75;1.20;;;15.70;97.90;;;;;;6077245;23;20068;-80
2022/07/22 04:48:33;;;;;;;2.27;1.17;;;15.70;97.90;;;;;;6105427;23;20021;-81
2022/07/22 04:51:00;;;;;;;3.17;1.30;;;15.70;98.00;;;;;;6075632;23;20076;-80
2022/07/22 04:53:26;;;;;;;2.63;1.13;;;15.70;98.10;;;;;;6079853;23;20716;-81
2022/07/22 04:55:52;;;;;;;3.00;1.30;;;15.70;98.20;;;;;;6077300;23;20091;-81
2022/07/22 04:58:17;;;;;;;2.00;1.23;;;15.70;98.20;;;;;;6107121;23;20323;-81
2022/07/22 05:00:43;;;;;;;3.30;1.30;;;15.70;98.30;;;;;;6076452;23;20022;-80
2022/07/22 05:03:09;;;;;;;1.80;1.20;;;15.80;98.40;;;;;;6070077;23;20018;-81
2022/07/22 05:05:34;;;;;;;2.50;1.10;;;15.80;98.40;;;;;;6083363;23;20105;-80
2022/07/22 05:08:00;;;;;;;2.53;1.33;;;15.90;98.60;;;;;;6070822;23;20020;-81
2022/07/22 05:10:27;;;;;;;1.80;1.10;;;15.90;98.70;;;;;;6108255;23;20224;-80
2022/07/22 05:12:53;;;;;;;2.58;1.23;;;15.90;98.70;;;;;;6109134;23;20014;-81
2022/07/22 05:15:18;;;;;;;2.70;1.50;;;16.00;98.90;;;;;;6073596;23;20416;-80
2022/07/22 05:17:44;;;;;;;2.58;1.40;;;16.00;98.90;;;;;;6105933;23;20014;-81
2022/07/22 05:20:10;;;;;;;3.87;1.50;;;16.00;99.00;;;;;;6079580;23;20014;-81
2022/07/22 05:22:36;;;;;;;3.72;1.55;;;16.10;99.10;;;;;;6067282;23;20017;-81
2022/07/22 05:25:02;;;;;;;2.60;1.60;;;16.10;99.20;;;;;;6080894;23;20013;-80
2022/07/22 05:27:28;;;;;;;4.85;1.90;;;16.10;99.40;;;;;;6082399;23;20105;-81
2022/07/22 05:29:53;;;;;;;4.10;1.70;;;16.10;99.50;;;;;;6108139;23;20016;-81
2022/07/22 05:32:19;;;;;;;3.60;1.90;;;16.20;99.70;;;;;;6102623;23;20249;-81
2022/07/22 05:34:44;;;;;;;3.60;1.90;;;16.30;99.90;;;;;;6104516;23;20308;-81
2022/07/22 05:37:10;;;;;;;4.07;2.10;;;16.30;99.90;;;;;;6078134;23;20010;-82
2022/07/22 05:39:36;;;;;;;3.83;1.95;;;16.40;99.90;;;;;;6072783;23;20428;-82
2022/07/22 05:42:01;;;;;;;3.87;2.07;;;16.40;99.90;;;;;;6103142;23;20474;-82
2022/07/22 05:44:27;;;;;;;5.07;2.30;;;16.50;99.90;;;;;;6106823;23;20037;-82
2022/07/22 05:46:52;;;;;;;4.93;2.23;;;16.50;99.90;;;;;;6076687;23;20119;-81
2022/07/22 05:49:19;;;;;;;4.33;2.40;;;16.60;99.90;;;;;;6070310;23;20473;-82
2022/07/22 05:51:45;;;;;;;4.72;2.25;;;16.70;99.90;;;;;;6082960;23;20446;-82
2022/07/22 05:54:11;;;;;;;5.35;2.58;;;16.70;99.90;;;;;;6063215;23;20240;-81
2022/07/22 05:56:36;;;;;;;7.60;2.80;;;16.80;99.90;;;;;;6083294;23;20017;-82
2022/07/22 05:59:02;;;;;;;6.03;2.80;;;16.90;99.90;;;;;;6106042;23;20160;-82
2022/07/22 06:01:28;;;;;;;6.43;2.50;;;16.90;99.90;;;;;;6077821;23;20339;-82
2022/07/22 06:03:53;;;;;;;6.25;2.85;;;17.00;99.90;;;;;;6075159;23;20044;-82
2022/07/22 06:06:19;;;;;;;5.83;3.30;;;17.10;99.90;;;;;;6098493;23;20097;-82
2022/07/22 06:08:44;;;;;;;6.30;2.83;;;17.20;99.90;;;;;;6080691;23;20017;-82
2022/07/22 06:11:10;;;;;;;7.57;3.00;;;17.30;99.90;;;;;;6072453;23;20109;-82
2022/07/22 06:13:37;;;;;;;6.87;3.17;;;17.40;99.90;;;;;;6110109;23;20121;-82
2022/07/22 06:16:03;;;;;;;7.10;2.90;;;17.40;99.90;;;;;;6070202;23;20014;-83
2022/07/22 06:18:29;;;;;;;10.18;2.92;;;17.50;99.90;;;;;;6099564;23;20299;-82
2022/07/22 06:20:55;;;;;;;8.98;3.60;;;17.60;99.90;;;;;;6103422;23;20498;-83
2022/07/22 06:23:24;;;;;;;5.47;2.63;;;17.70;99.90;;;;;;6103465;23;20010;-83
2022/07/22 06:25:49;;;;;;;5.20;2.83;;;17.70;99.90;;;;;;6071031;23;20399;-83
2022/07/22 06:28:15;;;;;;;6.30;3.47;;;17.80;99.90;;;;;;6073320;23;20157;-83
2022/07/22 06:30:40;;;;;;;7.18;3.17;;;17.90;99.90;;;;;;6083564;23;20014;-83
2022/07/22 06:33:06;;;;;;;7.77;3.33;;;18.00;99.90;;;;;;6094366;23;20332;-83
2022/07/22 06:35:32;;;;;;;7.18;2.97;;;18.10;99.90;;;;;;6108267;23;20014;-83
2022/07/22 06:37:58;;;;;;;8.10;3.27;;;18.20;99.90;;;;;;6069342;23;20478;-84
2022/07/22 06:40:23;;;;;;;5.72;2.92;;;18.30;99.90;;;;;;6067553;23;20276;-84
2022/07/22 06:42:49;;;;;;;7.77;3.40;;;18.40;99.90;;;;;;6109048;23;20018;-84
2022/07/22 06:45:14;;;;;;;4.38;2.33;;;18.50;99.90;;;;;;6079460;23;20489;-84
2022/07/22 06:47:40;;;;;;;6.87;3.20;;;18.60;99.90;;;;;;6077903;23;20010;-84
2022/07/22 06:50:07;;;;;;;6.97;3.53;;;18.70;99.90;;;;;;6072331;23;20034;-84
2022/07/22 06:52:33;;;;;;;5.77;2.73;;;18.80;99.90;;;;;;6105557;23;20017;-84
2022/07/22 06:54:59;;;;;;;7.30;2.90;;;18.90;99.90;;;;;;6071057;23;20451;-84
2022/07/22 06:57:25;;;;;;;3.88;2.40;;;19.00;99.90;;;;;;6071916;23;20470;-84
2022/07/22 06:59:50;;;;;;;4.83;2.30;;;19.10;99.90;;;;;;6077768;23;20006;-84
2022/07/22 07:02:16;;;;;;;4.18;2.33;;;19.20;99.90;;;;;;6072357;23;20590;-83
2022/07/22 07:04:42;;;;;;;5.57;2.20;;;19.30;99.90;;;;;;6081829;23;20014;-83
2022/07/22 07:07:08;;;;;;;3.75;1.83;;;19.30;99.90;;;;;;6067967;23;20013;-83
2022/07/22 07:09:34;;;;;;;4.75;2.15;;;19.40;99.90;;;;;;6097367;23;20589;-78
2022/07/22 07:12:02;;;;;;;5.85;2.10;;;19.50;99.90;;;;;;6063758;23;20037;-83
2022/07/22 07:14:27;;;;;;;4.77;2.13;;;19.60;99.90;;;;;;6100307;23;20365;-83
2022/07/22 07:16:53;;;;;;;6.03;2.30;;;19.70;99.90;;;;;;6080988;23;20014;-83
2022/07/22 07:19:19;;;;;;;4.33;2.10;;;19.80;99.90;;;;;;6079816;23;20041;-84
2022/07/22 07:21:45;;;;;;;4.05;2.30;;;19.80;99.90;;;;;;6071171;23;20272;-84
2022/07/22 07:24:11;;;;;;;4.07;2.20;;;19.90;99.90;;;;;;6099593;23;20017;-83
2022/07/22 07:26:37;;;;;;;3.27;2.00;;;20.00;99.90;;;;;;6098660;23;20332;-83
2022/07/22 07:29:03;;;;;;;3.72;1.80;;;20.10;99.90;;;;;;6075914;23;20431;-83
2022/07/22 07:31:28;;;;;;;3.45;1.80;;;20.30;99.90;;;;;;6080016;23;20025;-82
2022/07/22 07:33:54;;;;;;;2.83;1.77;;;20.50;99.90;;;;;;6081609;23;20029;-83
2022/07/22 07:36:20;;;;;;;4.53;1.85;;;20.70;99.90;;;;;;6099460;23;20059;-83
2022/07/22 07:38:45;;;;;;;2.03;1.67;;;20.80;99.90;;;;;;6103474;23;20127;-84
2022/07/22 07:41:11;;;;;;;2.38;1.80;;;21.00;99.90;;;;;;6072765;23;20017;-82
2022/07/22 07:43:37;;;;;;;2.90;1.70;;;21.10;99.90;;;;;;6097526;23;20399;-83
2022/07/22 07:46:03;;;;;;;3.13;1.80;;;21.40;99.90;;;;;;6078111;23;20017;-83
2022/07/22 07:48:29;;;;;;;3.00;1.90;;;21.50;99.90;;;;;;6076541;23;20694;-83
2022/07/22 07:50:55;;;;;;;3.95;2.00;;;21.70;99.90;;;;;;6080510;23;20232;-82
2022/07/22 07:53:21;;;;;;;2.70;1.87;;;22.00;99.90;;;;;;6070935;23;20014;-82
2022/07/22 07:55:48;;;;;;;1.92;1.50;;;22.40;99.90;;;;;;6099375;23;20545;-83
2022/07/22 07:58:14;;;;;;;3.47;1.80;;;22.80;99.90;;;;;;6071773;23;20014;-83
2022/07/22 08:00:42;;;;;;;2.27;1.50;;;23.20;99.90;;;;;;6071298;23;20249;-83
2022/07/22 08:03:07;;;;;;;2.25;1.77;;;23.50;99.90;;;;;;6081977;23;20444;-83
2022/07/22 08:05:34;;;;;;;3.17;1.77;;;23.70;99.90;;;;;;6073863;23;20018;-83
2022/07/22 08:07:59;;;;;;;3.70;1.70;;;24.00;99.90;;;;;;6075536;23;20018;-83
2022/07/22 08:10:26;;;;;;;3.10;1.70;;;24.20;99.90;;;;;;6099795;23;20021;-83
2022/07/22 08:12:53;;;;;;;3.10;1.75;;;24.40;99.90;;;;;;6074974;23;20341;-83
2022/07/22 08:15:18;;;;;;;4.00;2.00;;;24.60;99.90;;;;;;6097205;23;20084;-83
2022/07/22 08:17:44;;;;;;;2.25;1.80;;;24.70;99.50;;;;;;6079044;23;20304;-83
2022/07/22 08:20:10;;;;;;;3.23;1.87;;;24.80;98.50;;;;;;6075649;23;20018;-83
2022/07/22 08:22:36;;;;;;;2.40;1.70;;;24.70;97.80;;;;;;6077869;23;20097;-84
2022/07/22 08:25:01;;;;;;;2.42;1.70;;;24.70;97.50;;;;;;6076474;23;20486;-83
2022/07/22 08:27:27;;;;;;;3.53;1.90;;;24.60;97.40;;;;;;6096772;23;20271;-82
2022/07/22 08:29:53;;;;;;;3.20;1.70;;;24.60;97.60;;;;;;6098041;23;20049;-83
2022/07/22 08:32:18;;;;;;;3.07;1.90;;;24.60;98.00;;;;;;6079495;23;20509;-83
2022/07/22 08:34:44;;;;;;;3.50;1.83;;;24.60;98.00;;;;;;6077299;23;20090;-83
2022/07/22 08:37:10;;;;;;;3.05;2.00;;;24.60;98.50;;;;;;6081103;23;20330;-82
2022/07/22 08:39:36;;;;;;;3.45;2.00;;;24.70;99.60;;;;;;6073717;23;20033;-82
2022/07/22 08:42:02;;;;;;;3.70;1.90;;;24.90;99.90;;;;;;6108565;23;20381;-83
2022/07/22 08:44:32;;;;;;;3.20;1.77;;;25.20;99.90;;;;;;6061769;23;20675;-83
2022/07/22 08:46:59;;;;;;;2.40;1.98;;;25.50;98.60;;;;;;6075917;23;20517;-83
2022/07/22 08:49:25;;;;;;;3.80;2.00;;;25.70;99.50;;;;;;6077200;23;20621;-83
2022/07/22 08:51:51;;;;;;;3.70;2.30;;;26.00;99.90;;;;;;6102730;23;20014;-84
2022/07/22 08:54:16;;;;;;;3.05;1.83;;;26.30;99.90;;;;;;6073710;23;20009;-83
2022/07/22 08:56:46;;;;;;;3.50;2.10;;;26.60;99.90;;;;;;6076904;23;20014;-83
2022/07/22 08:59:12;;;;;;;3.00;1.77;;;27.00;98.30;;;;;;6070431;23;20049;-82
2022/07/22 09:01:37;;;;;;;2.87;2.07;;;27.30;99.60;;;;;;6074451;23;20639;-83
2022/07/22 09:04:03;;;;;;;4.35;2.00;;;27.60;99.20;;;;;;6101672;23;20301;-83
2022/07/22 09:06:35;;;;;;;2.63;2.00;;;27.90;98.50;;;;;;6077178;23;20329;-83
2022/07/22 09:09:05;;;;;;;2.80;2.00;;;28.10;98.10;;;;;;6109342;23;20034;-84
2022/07/22 09:11:31;;;;;;;2.20;1.90;;;28.40;95.80;;;;;;6071844;23;20288;-83
2022/07/22 09:13:59;;;;;;;3.08;1.95;;;28.60;96.80;;;;;;6070757;23;20456;-82
2022/07/22 09:16:46;;;;;;;2.83;1.80;;;28.70;95.90;;;;;;6093064;23;20098;-83
2022/07/22 09:19:12;;;;;;;2.70;2.00;;;28.80;92.50;;;;;;6102072;23;20466;-83
2022/07/22 09:21:46;;;;;;;3.00;1.90;;;28.90;95.70;;;;;;6077966;23;20014;-84
2022/07/22 09:24:29;;;;;;;2.78;2.00;;;29.10;95.10;;;;;;6105195;23;20010;-83
2022/07/22 09:26:55;;;;;;;2.92;1.90;;;29.20;92.60;;;;;;6100015;23;20014;-83
2022/07/22 09:29:22;;;;;;;2.65;2.20;;;29.40;96.60;;;;;;6104821;23;20014;-83
2022/07/22 09:31:51;;;;;;;4.23;2.07;;;29.60;96.80;;;;;;6062850;23;20014;-83
2022/07/22 09:34:27;;;;;;;3.10;2.00;;;29.90;94.80;;;;;;6083864;23;20060;-83
2022/07/22 09:36:55;;;;;;;3.80;2.03;;;30.00;92.00;;;;;;6106828;23;20224;-82
2022/07/22 09:39:29;;;;;;;2.60;2.13;;;30.10;94.60;;;;;;6104799;23;20572;-83
2022/07/22 09:42:04;;;;;;;2.88;2.17;;;30.20;92.60;;;;;;6107042;23;20189;-83
2022/07/22 09:44:30;;;;;;;4.53;2.30;;;30.10;91.90;;;;;;6074264;23;20055;-83
2022/07/22 09:46:55;;;;;;;4.25;2.30;;;30.10;93.20;;;;;;6066223;23;20528;-84
2022/07/22 09:49:37;;;;;;;2.97;2.30;;;30.00;93.00;;;;;;6103525;23;20029;-83
2022/07/22 09:52:03;;;;;;;3.28;2.25;;;29.80;89.90;;;;;;6102558;23;20209;-82
2022/07/22 09:54:30;;;;;;;3.25;2.22;;;29.80;93.20;;;;;;6107194;23;20018;-83
2022/07/22 09:56:57;;;;;;;3.83;2.40;;;29.80;93.40;;;;;;6080282;23;20117;-83
2022/07/22 09:59:23;;;;;;;3.77;2.40;;;29.90;93.70;;;;;;6098620;23;20041;-84
2022/07/22 10:01:53;;;;;;;2.55;2.20;;;29.90;93.70;;;;;;6062294;23;20318;-82
2022/07/22 10:04:20;;;;;;;2.60;2.20;;;30.00;92.90;;;;;;6104780;23;20089;-83
2022/07/22 10:06:47;;;;;;;3.58;2.30;;;30.20;93.60;;;;;;6105601;23;20080;-83
2022/07/22 10:09:16;;;;;;;4.80;2.40;;;30.30;92.70;;;;;;6085341;23;20017;-83
2022/07/22 10:11:45;;;;;;;2.58;2.00;;;30.30;92.50;;;;;;6101270;23;20296;-81
2022/07/22 10:14:16;;;;;;;3.67;2.40;;;30.30;92.40;;;;;;6083768;23;20029;-84
2022/07/22 10:16:43;;;;;;;3.70;2.13;;;30.30;91.90;;;;;;6099118;23;20331;-84
2022/07/22 10:19:08;;;;;;;3.58;2.40;;;30.30;92.10;;;;;;6099304;23;20331;-83
2022/07/22 10:21:34;;;;;;;2.90;2.03;;;30.20;91.30;;;;;;6081364;23;20090;-84
2022/07/22 10:24:26;;;;;;;2.60;2.03;;;30.20;91.10;;;;;;6076455;23;20213;-82
2022/07/22 10:26:57;;;;;;;2.83;2.43;;;30.10;86.30;;;;;;6070418;23;20526;-83
2022/07/22 10:29:31;;;;;;;3.63;2.38;;;30.00;88.90;;;;;;6109550;23;20533;-83
2022/07/22 10:32:15;;;;;;;3.60;2.10;;;29.90;87.80;;;;;;6075614;23;20471;-83
2022/07/22 10:34:42;;;;;;;3.08;2.45;;;29.90;85.90;;;;;;6094151;23;20100;-83
2022/07/22 10:37:42;;;;;;;3.90;2.55;;;29.90;91.60;;;;;;6107870;23;20020;-83
2022/07/22 10:40:17;;;;;;;3.37;2.53;;;29.70;87.10;;;;;;6031746;23;20037;-83
2022/07/22 10:43:00;;;;;;;4.78;2.60;;;29.70;89.50;;;;;;6099275;23;20006;-83
2022/07/22 10:45:32;;;;;;;3.10;2.63;;;29.70;87.40;;;;;;6082307;23;20387;-83
2022/07/22 10:48:00;;;;;;;3.03;2.22;;;29.80;90.80;;;;;;6104253;23;20144;-84
2022/07/22 10:50:35;;;;;;;3.28;2.53;;;30.00;93.10;;;;;;6095925;23;20037;-83
2022/07/22 10:53:06;;;;;;;3.17;2.40;;;30.30;91.20;;;;;;6073270;23;20271;-82
2022/07/22 10:55:33;;;;;;;2.97;2.30;;;30.60;94.10;;;;;;6107921;23;20308;-83
2022/07/22 10:57:59;;;;;;;3.65;2.63;;;30.90;94.20;;;;;;6081234;23;20028;-83
2022/07/22 11:00:25;;;;;;;3.95;2.45;;;31.10;93.60;;;;;;6081118;23;20107;-83
2022/07/22 11:02:51;;;;;;;4.10;2.65;;;31.30;93.10;;;;;;6077258;23;20033;-83
2022/07/22 11:05:30;;;;;;;4.47;2.77;;;31.60;92.70;;;;;;6094902;23;20014;-83
2022/07/22 11:07:55;;;;;;;3.13;2.50;;;31.70;88.70;;;;;;6082477;23;20024;-82
2022/07/22 11:10:21;;;;;;;3.67;2.80;;;31.90;92.30;;;;;;6106909;23;20195;-83
2022/07/22 11:12:49;;;;;;;2.92;2.20;;;32.10;92.40;;;;;;6107642;23;20096;-82
2022/07/22 11:15:15;;;;;;;3.63;2.22;;;32.20;92.00;;;;;;6079183;23;20303;-83
2022/07/22 11:17:41;;;;;;;3.47;2.67;;;32.40;92.70;;;;;;6101514;23;20534;-83
2022/07/22 11:20:13;;;;;;;4.93;2.63;;;32.60;91.90;;;;;;6096490;23;20010;-83
2022/07/22 11:22:39;;;;;;;3.22;2.20;;;32.80;89.80;;;;;;6083929;23;20470;-83
2022/07/22 11:25:07;;;;;;;3.05;2.63;;;33.00;91.50;;;;;;6107063;23;20660;-82
2022/07/22 11:27:33;;;;;;;4.10;2.58;;;33.20;90.50;;;;;;6082312;23;20014;-83
2022/07/22 11:29:59;;;;;;;3.93;2.77;;;33.30;90.40;;;;;;6081745;23;20088;-83
2022/07/22 11:32:31;;;;;;;3.10;2.60;;;33.40;89.60;;;;;;6102102;23;20014;-82
2022/07/22 11:34:57;;;;;;;3.20;2.53;;;33.40;87.70;;;;;;6097212;23;20065;-84
2022/07/22 11:37:24;;;;;;;4.13;2.72;;;33.40;87.70;;;;;;6100705;23;20157;-82
2022/07/22 11:40:03;;;;;;;3.50;2.57;;;33.30;86.60;;;;;;6082807;23;20018;-83
2022/07/22 11:42:28;;;;;;;3.63;2.75;;;33.20;79.70;;;;;;6081605;23;20280;-83
2022/07/22 11:44:55;;;;;;;2.67;2.28;;;33.10;85.40;;;;;;6102789;23;20009;-83
2022/07/22 11:47:21;;;;;;;3.80;2.50;;;33.10;84.20;;;;;;6079925;23;20017;-83
2022/07/22 11:49:48;;;;;;;3.90;2.55;;;33.00;84.80;;;;;;6076350;23;20010;-83
2022/07/22 11:52:13;;;;;;;3.67;2.83;;;32.90;83.40;;;;;;6092098;23;20024;-83
2022/07/22 11:54:41;;;;;;;3.87;2.63;;;32.80;84.30;;;;;;6082996;23;20014;-82
2022/07/22 11:57:07;;;;;;;4.35;3.03;;;32.80;82.90;;;;;;6079706;23;20038;-82
2022/07/22 11:59:34;;;;;;;4.35;3.03;;;32.80;82.70;;;;;;6082757;23;20347;-82
2022/07/22 12:02:01;;;;;;;3.40;2.80;;;32.70;82.10;;;;;;6078590;23;20026;-82
2022/07/22 12:04:28;;;;;;;5.72;2.70;;;32.60;82.00;;;;;;6100593;23;20013;-82
2022/07/22 12:06:57;;;;;;;3.93;2.60;;;32.50;81.20;;;;;;6105271;23;20137;-82
2022/07/22 12:09:25;;;;;;;4.43;2.72;;;32.40;80.80;;;;;;6074992;23;20271;-83
2022/07/22 12:11:54;;;;;;;2.50;2.30;;;32.30;80.00;;;;;;6082053;23;20021;-82
2022/07/22 12:14:22;;;;;;;3.05;2.53;;;32.20;79.50;;;;;;6079327;23;20018;-82
2022/07/22 12:16:59;;;;;;;3.38;2.63;;;32.10;79.20;;;;;;6110057;23;20010;-83
2022/07/22 12:19:29;;;;;;;3.10;2.40;;;32.00;74.30;;;;;;6100028;23;20264;-83
2022/07/22 12:21:59;;;;;;;4.53;2.42;;;32.00;79.80;;;;;;6078648;23;20447;-83
2022/07/22 12:24:45;;;;;;;3.65;2.50;;;31.90;80.10;;;;;;6076218;23;20479;-83
2022/07/22 12:27:15;;;;;;;3.28;2.50;;;31.80;73.60;;;;;;6102625;23;20038;-83
2022/07/22 12:29:44;;;;;;;4.18;2.38;;;31.80;80.90;;;;;;6082743;23;20061;-83
2022/07/22 12:32:31;;;;;;;4.00;2.50;;;31.70;78.60;;;;;;6105005;23;20414;-82
2022/07/22 12:35:02;;;;;;;4.22;2.90;;;31.60;78.80;;;;;;6075211;23;20018;-84
2022/07/22 12:37:43;;;;;;;3.47;2.33;;;31.60;77.50;;;;;;6079201;23;20208;-83
2022/07/22 12:40:18;;;;;;;2.90;2.42;;;31.60;75.20;;;;;;6092006;23;20427;-82
2022/07/22 12:43:05;;;;;;;4.00;2.70;;;31.60;75.60;;;;;;6108997;23;20014;-82
2022/07/22 12:45:36;;;;;;;3.27;2.60;;;31.70;79.90;;;;;;6082250;23;20024;-82
2022/07/22 12:48:05;;;;;;;3.63;2.50;;;31.70;79.40;;;;;;6106119;23;20088;-82